createdAt,value
2018-10-05T00:01:23.569Z,101795.39
2018-10-05T00:03:53.950Z,101792.19
2018-10-05T00:06:24.331Z,101786.79
2018-10-05T00:08:54.761Z,101789.64
2018-10-05T00:11:25.361Z,101781.33
2018-10-05T00:13:56.453Z,101787.91
2018-10-05T00:16:26.928Z,101781.68
2018-10-05T00:18:57.348Z,101781.41
2018-10-05T00:21:27.760Z,101778.59
2018-10-05T00:23:58.084Z,101779.11
2018-10-05T00:26:28.551Z,101773.92
2018-10-05T00:28:58.861Z,101772.36
2018-10-05T00:31:29.984Z,101768.56
2018-10-05T00:34:00.500Z,101759.92
2018-10-05T00:36:31.108Z,101756.03
2018-10-05T00:39:01.720Z,101758.16
2018-10-05T00:41:32.056Z,101757.55
2018-10-05T00:44:02.356Z,101757.22
2018-10-05T00:46:32.914Z,101748.89
2018-10-05T00:49:03.348Z,101751.02
2018-10-05T00:51:33.603Z,101748.89
2018-10-05T00:54:04.088Z,101751.80
2018-10-05T00:56:34.552Z,101747.03
2018-10-05T00:59:05.053Z,101749.13
2018-10-05T01:01:35.551Z,101748.94
2018-10-05T01:04:05.815Z,101743.26
2018-10-05T01:06:36.256Z,101747.58
2018-10-05T01:09:07.559Z,101747.34
2018-10-05T01:11:38.197Z,101739.34
2018-10-05T01:14:08.556Z,101739.44
2018-10-05T01:16:39.063Z,101742.95
2018-10-05T01:19:09.660Z,101739.16
2018-10-05T01:21:39.888Z,101740.12
2018-10-05T01:24:10.192Z,101741.05
2018-10-05T01:26:40.756Z,101745.47
2018-10-05T01:29:11.115Z,101741.22
2018-10-05T01:31:41.529Z,101740.56
2018-10-05T01:34:11.946Z,101737.92
2018-10-05T01:36:42.347Z,101744.53
2018-10-05T01:39:12.639Z,101745.16
2018-10-05T01:41:43.036Z,101731.47
2018-10-05T01:44:13.396Z,101736.72
2018-10-05T01:46:43.756Z,101732.94
2018-10-05T01:49:14.172Z,101738.64
2018-10-05T01:51:44.658Z,101736.94
2018-10-05T01:54:15.546Z,101735.39
2018-10-05T01:56:46.008Z,101731.17
2018-10-05T01:59:16.464Z,101723.58
2018-10-05T02:01:47.837Z,101726.66
2018-10-05T02:04:18.212Z,101722.38
2018-10-05T02:06:48.641Z,101720.70
2018-10-05T02:09:18.943Z,101723.91
2018-10-05T02:11:49.400Z,101722.23
2018-10-05T02:14:19.693Z,101715.42
2018-10-05T02:16:50.155Z,101713.76
2018-10-05T02:19:20.776Z,101705.13
2018-10-05T02:21:51.146Z,101706.80
2018-10-05T02:24:21.506Z,101711.59
2018-10-05T02:26:51.914Z,101702.50
2018-10-05T02:29:22.208Z,101697.38
2018-10-05T02:31:52.567Z,101690.16
2018-10-05T02:34:22.924Z,101689.61
2018-10-05T02:36:53.401Z,101686.23
2018-10-05T02:39:23.710Z,101677.31
2018-10-05T02:41:54.089Z,101672.70
2018-10-05T02:44:24.352Z,101663.66
2018-10-05T02:46:54.712Z,101667.58
2018-10-05T02:49:25.348Z,101659.83
2018-10-05T02:51:55.995Z,101657.20
2018-10-05T02:54:26.281Z,101660.63
2018-10-05T02:56:56.624Z,101655.05
2018-10-05T02:59:26.932Z,101650.05
2018-10-05T03:02:14.369Z,101652.33
2018-10-05T03:04:44.680Z,101640.25
2018-10-05T03:07:15.053Z,101643.70
2018-10-05T03:09:45.318Z,101649.26
2018-10-05T03:12:16.396Z,101645.04
2018-10-05T03:14:48.780Z,101644.33
2018-10-05T03:17:19.332Z,101644.28
2018-10-05T03:19:49.656Z,101641.46
2018-10-05T03:22:19.880Z,101635.04
2018-10-05T03:24:50.243Z,101639.41
2018-10-05T03:27:20.859Z,101639.45
2018-10-05T03:29:51.254Z,101646.75
2018-10-05T03:32:21.585Z,101645.91
2018-10-05T03:34:52.012Z,101645.53
2018-10-05T03:37:22.445Z,101650.59
2018-10-05T03:39:52.772Z,101650.51
2018-10-05T03:42:23.072Z,101646.38
2018-10-05T03:44:53.403Z,101636.38
2018-10-05T03:47:23.816Z,101642.75
2018-10-05T03:49:54.314Z,101636.38
2018-10-05T03:52:24.668Z,101634.13
2018-10-05T03:54:55.025Z,101636.78
2018-10-05T03:57:25.415Z,101636.86
2018-10-05T03:59:55.699Z,101632.07
2018-10-05T04:02:26.753Z,101630.73
2018-10-05T04:04:57.090Z,101629.87
2018-10-05T04:07:27.345Z,101630.03
2018-10-05T04:09:57.707Z,101627.06
2018-10-05T04:12:28.367Z,101627.52
2018-10-05T04:14:58.880Z,101628.02
2018-10-05T04:17:29.277Z,101625.44
2018-10-05T04:19:59.659Z,101628.40
2018-10-05T04:22:31.136Z,101630.19
2018-10-05T04:25:01.669Z,101635.44
2018-10-05T04:27:32.249Z,101628.18
2018-10-05T04:30:02.758Z,101632.97
2018-10-05T04:32:33.073Z,101636.31
2018-10-05T04:35:03.480Z,101637.56
2018-10-05T04:37:33.944Z,101637.14
2018-10-05T04:40:04.349Z,101632.23
2018-10-05T04:42:34.704Z,101636.45
2018-10-05T04:45:05.320Z,101639.53
2018-10-05T04:47:35.742Z,101637.78
2018-10-05T04:50:06.111Z,101639.50
2018-10-05T04:52:36.493Z,101636.83
2018-10-05T04:55:06.991Z,101632.98
2018-10-05T04:57:37.543Z,101631.16
2018-10-05T05:00:08.232Z,101630.06
2018-10-05T05:02:38.634Z,101633.19
2018-10-05T05:05:09.011Z,101632.55
2018-10-05T05:07:39.444Z,101636.01
2018-10-05T05:10:10.656Z,101635.89
2018-10-05T05:12:40.963Z,101628.18
2018-10-05T05:15:11.539Z,101633.69
2018-10-05T05:17:42.038Z,101632.97
2018-10-05T05:20:12.996Z,101637.23
2018-10-05T05:22:43.370Z,101636.05
2018-10-05T05:25:13.771Z,101642.63
2018-10-05T05:27:44.356Z,101642.23
2018-10-05T05:30:14.752Z,101647.45
2018-10-05T05:32:45.083Z,101645.77
2018-10-05T05:35:15.280Z,101646.19
2018-10-05T05:37:45.580Z,101644.94
2018-10-05T05:40:16.081Z,101650.59
2018-10-05T05:42:46.536Z,101656.52
2018-10-05T05:45:16.891Z,101656.03
2018-10-05T05:47:47.412Z,101653.58
2018-10-05T05:50:17.946Z,101650.94
2018-10-05T05:52:48.283Z,101647.41
2018-10-05T05:55:18.721Z,101651.73
2018-10-05T05:57:49.012Z,101644.00
2018-10-05T06:00:19.471Z,101643.81
2018-10-05T06:02:49.879Z,101645.41
2018-10-05T06:05:20.844Z,101651.23
2018-10-05T06:07:51.251Z,101650.53
2018-10-05T06:10:21.816Z,101642.23
2018-10-05T06:12:52.151Z,101645.20
2018-10-05T06:15:22.573Z,101645.19
2018-10-05T06:17:53.033Z,101643.91
2018-10-05T06:20:23.439Z,101641.55
2018-10-05T06:22:53.744Z,101638.87
2018-10-05T06:25:24.096Z,101640.02
2018-10-05T06:27:54.374Z,101639.01
2018-10-05T06:30:25.798Z,101629.41
2018-10-05T06:32:56.103Z,101634.08
2018-10-05T06:35:26.508Z,101639.82
2018-10-05T06:37:57.067Z,101642.14
2018-10-05T06:40:27.512Z,101642.67
2018-10-05T06:42:57.876Z,101645.12
2018-10-05T06:45:28.372Z,101644.55
2018-10-05T06:47:58.829Z,101637.75
2018-10-05T06:50:29.247Z,101646.40
2018-10-05T06:52:59.536Z,101630.77
2018-10-05T06:55:29.991Z,101641.22
2018-10-05T06:58:00.294Z,101635.95
2018-10-05T07:00:30.848Z,101641.84
2018-10-05T07:03:01.345Z,101646.88
2018-10-05T07:05:31.910Z,101640.23
2018-10-05T07:08:02.471Z,101641.00
2018-10-05T07:10:33.247Z,101642.40
2018-10-05T07:13:03.807Z,101635.84
2018-10-05T07:15:34.032Z,101630.23
2018-10-05T07:18:04.312Z,101633.41
2018-10-05T07:20:34.820Z,101629.37
2018-10-05T07:23:05.427Z,101635.19
2018-10-05T07:25:35.799Z,101638.47
2018-10-05T07:28:06.300Z,101633.95
2018-10-05T07:30:36.717Z,101629.22
2018-10-05T07:33:07.208Z,101627.97
2018-10-05T07:35:37.611Z,101622.05
2018-10-05T07:38:08.208Z,101628.06
2018-10-05T07:40:38.439Z,101630.58
2018-10-05T07:43:08.981Z,101629.41
2018-10-05T07:45:39.886Z,101630.09
2018-10-05T07:48:10.418Z,101629.60
2018-10-05T07:50:41.004Z,101624.76
2018-10-05T07:53:11.296Z,101632.68
2018-10-05T07:55:41.648Z,101623.27
2018-10-05T07:58:12.046Z,101613.66
2018-10-05T08:00:42.571Z,101611.73
2018-10-05T08:03:12.924Z,101615.28
2018-10-05T08:05:43.214Z,101614.05
2018-10-05T08:08:13.655Z,101617.25
2018-10-05T08:10:44.056Z,101618.27
2018-10-05T08:13:14.536Z,101620.05
2018-10-05T08:15:45.014Z,101607.70
2018-10-05T08:18:15.284Z,101608.55
2018-10-05T08:20:45.747Z,101598.55
2018-10-05T08:23:16.064Z,101597.52
2018-10-05T08:25:46.560Z,101594.25
2018-10-05T08:28:17.109Z,101586.44
2018-10-05T08:30:47.441Z,101587.08
2018-10-05T08:33:17.842Z,101585.13
2018-10-05T08:35:48.396Z,101582.92
2018-10-05T08:38:18.735Z,101583.77
2018-10-05T08:40:49.359Z,101574.45
2018-10-05T08:43:19.797Z,101584.41
2018-10-05T08:45:50.260Z,101579.55
2018-10-05T08:48:20.767Z,101582.22
2018-10-05T08:50:51.217Z,101589.56
2018-10-05T08:53:21.643Z,101581.88
2018-10-05T08:55:52.099Z,101579.72
2018-10-05T08:58:22.502Z,101579.36
2018-10-05T09:00:52.908Z,101572.59
2018-10-05T09:03:23.329Z,101574.82
2018-10-05T09:05:53.789Z,101573.60
2018-10-05T09:08:24.114Z,101570.33
2018-10-05T09:10:54.367Z,101571.88
2018-10-05T09:13:24.967Z,101564.16
2018-10-05T09:15:55.421Z,101570.91
2018-10-05T09:18:25.846Z,101571.19
2018-10-05T09:20:56.257Z,101561.16
2018-10-05T09:23:26.609Z,101560.83
2018-10-05T09:25:57.148Z,101553.98
2018-10-05T09:28:27.340Z,101552.94
2018-10-05T09:30:57.840Z,101558.38
2018-10-05T09:33:28.207Z,101559.76
2018-10-05T09:35:58.695Z,101558.38
2018-10-05T09:38:29.297Z,101548.30
2018-10-05T09:40:59.757Z,101539.31
2018-10-05T09:43:30.037Z,101540.11
2018-10-05T09:46:00.591Z,101531.98
2018-10-05T09:48:31.103Z,101518.27
2018-10-05T09:51:01.583Z,101528.12
2018-10-05T09:53:31.926Z,101518.65
2018-10-05T09:56:02.420Z,101517.27
2018-10-05T09:58:32.920Z,101516.91
2018-10-05T10:01:09.520Z,101510.27
2018-10-05T10:03:39.804Z,101506.20
2018-10-05T10:06:10.307Z,101510.07
2018-10-05T10:08:40.762Z,101498.97
2018-10-05T10:11:11.342Z,101504.80
2018-10-05T10:13:41.783Z,101493.84
2018-10-05T10:16:12.469Z,101491.36
2018-10-05T10:18:43.181Z,101488.74
2018-10-05T10:21:13.712Z,101493.06
2018-10-05T10:23:44.299Z,101487.75
2018-10-05T10:26:14.664Z,101482.01
2018-10-05T10:28:45.325Z,101480.84
2018-10-05T10:31:15.667Z,101472.30
2018-10-05T10:33:46.135Z,101471.93
2018-10-05T10:36:16.595Z,101470.39
2018-10-05T10:38:47.167Z,101463.69
2018-10-05T10:41:17.434Z,101461.18
2018-10-05T10:43:47.904Z,101462.14
2018-10-05T10:46:18.512Z,101451.81
2018-10-05T10:48:49.007Z,101451.59
2018-10-05T10:51:19.509Z,101448.11
2018-10-05T10:53:49.997Z,101440.02
2018-10-05T10:56:20.487Z,101435.77
2018-10-05T10:58:50.820Z,101436.10
2018-10-05T11:01:22.332Z,101434.42
2018-10-05T11:03:52.695Z,101430.51
2018-10-05T11:06:23.070Z,101424.33
2018-10-05T11:08:53.371Z,101420.66
2018-10-05T11:11:23.958Z,101421.38
2018-10-05T11:13:54.385Z,101407.77
2018-10-05T11:16:24.930Z,101411.62
2018-10-05T11:18:55.976Z,101404.23
2018-10-05T11:21:26.260Z,101404.73
2018-10-05T11:23:56.585Z,101398.83
2018-10-05T11:26:27.055Z,101397.73
2018-10-05T11:28:57.540Z,101393.48
2018-10-05T11:31:28.015Z,101387.95
2018-10-05T11:33:58.363Z,101380.25
2018-10-05T11:36:28.861Z,101374.97
2018-10-05T11:38:59.254Z,101367.78
2018-10-05T11:41:29.637Z,101358.77
2018-10-05T11:44:00.691Z,101356.63
2018-10-05T11:46:31.426Z,101357.12
2018-10-05T11:49:01.811Z,101351.84
2018-10-05T11:51:32.164Z,101350.92
2018-10-05T11:54:02.587Z,101347.62
2018-10-05T11:56:32.988Z,101337.53
2018-10-05T11:59:03.331Z,101341.29
2018-10-05T12:01:33.691Z,101338.55
2018-10-05T12:04:04.183Z,101339.22
2018-10-05T12:06:35.124Z,101333.97
2018-10-05T12:09:07.459Z,101327.00
2018-10-05T12:11:38.337Z,101317.51
2018-10-05T12:14:08.763Z,101319.88
2018-10-05T12:16:39.335Z,101313.55
2018-10-05T12:19:09.835Z,101310.48
2018-10-05T12:21:40.207Z,101300.27
2018-10-05T12:24:10.577Z,101303.00
2018-10-05T12:26:41.127Z,101296.93
2018-10-05T12:29:12.173Z,101299.30
2018-10-05T12:31:42.526Z,101293.86
2018-10-05T12:34:13.030Z,101286.86
2018-10-05T12:36:43.420Z,101285.25
2018-10-05T12:39:13.820Z,101283.80
2018-10-05T12:41:44.140Z,101279.88
2018-10-05T12:44:14.440Z,101280.20
2018-10-05T12:46:45.037Z,101282.62
2018-10-05T12:49:15.531Z,101274.75
2018-10-05T12:51:46.115Z,101272.75
2018-10-05T12:54:16.483Z,101267.15
2018-10-05T12:56:46.807Z,101259.63
2018-10-05T12:59:17.235Z,101263.63
2018-10-05T13:01:47.748Z,101261.06
2018-10-05T13:04:18.223Z,101256.58
2018-10-05T13:06:48.809Z,101253.12
2018-10-05T13:09:19.149Z,101251.77
2018-10-05T13:11:49.581Z,101246.59
2018-10-05T13:14:20.135Z,101238.38
2018-10-05T13:16:50.580Z,101236.59
2018-10-05T13:19:21.000Z,101230.56
2018-10-05T13:21:51.372Z,101231.48
2018-10-05T13:24:21.665Z,101226.41
2018-10-05T13:26:52.100Z,101226.61
2018-10-05T13:29:22.592Z,101224.83
2018-10-05T13:31:53.098Z,101226.84
2018-10-05T13:34:23.598Z,101224.83
2018-10-05T13:36:53.863Z,101225.38
2018-10-05T13:39:24.336Z,101226.01
2018-10-05T13:41:54.748Z,101216.37
2018-10-05T13:44:25.202Z,101221.42
2018-10-05T13:46:55.575Z,101208.47
2018-10-05T13:49:26.208Z,101208.50
2018-10-05T13:51:56.634Z,101204.91
2018-10-05T13:54:27.028Z,101205.13
2018-10-05T13:56:57.343Z,101193.05
2018-10-05T13:59:27.768Z,101199.95
2018-10-05T14:01:58.511Z,101195.64
2018-10-05T14:04:29.025Z,101189.13
2018-10-05T14:06:59.501Z,101186.63
2018-10-05T14:09:30.019Z,101182.94
2018-10-05T14:12:01.388Z,101179.66
2018-10-05T14:14:31.663Z,101176.21
2018-10-05T14:17:02.064Z,101162.84
2018-10-05T14:19:32.562Z,101161.89
2018-10-05T14:22:03.037Z,101166.25
2018-10-05T14:24:34.128Z,101158.56
2018-10-05T14:27:05.207Z,101159.70
2018-10-05T14:29:35.512Z,101154.61
2018-10-05T14:32:05.984Z,101153.89
2018-10-05T14:34:36.764Z,101152.52
2018-10-05T14:37:07.319Z,101154.50
2018-10-05T14:39:37.852Z,101142.09
2018-10-05T14:42:08.234Z,101140.77
2018-10-05T14:44:38.782Z,101130.88
2018-10-05T14:47:09.285Z,101131.22
2018-10-05T14:49:39.909Z,101121.47
2018-10-05T14:52:10.460Z,101121.56
2018-10-05T14:54:41.174Z,101115.58
2018-10-05T14:57:11.708Z,101117.88
2018-10-05T14:59:42.313Z,101111.85
2018-10-05T15:02:12.543Z,101104.70
2018-10-05T15:04:43.008Z,101105.46
2018-10-05T15:07:13.719Z,101096.83
2018-10-05T15:09:44.294Z,101094.95
2018-10-05T15:12:14.879Z,101093.50
2018-10-05T15:14:45.312Z,101090.87
2018-10-05T15:17:15.699Z,101086.53
2018-10-05T15:19:46.040Z,101084.25
2018-10-05T15:22:16.413Z,101084.67
2018-10-05T15:24:46.732Z,101082.00
2018-10-05T15:27:17.299Z,101082.62
2018-10-05T15:29:47.687Z,101078.30
2018-10-05T15:32:18.039Z,101068.42
2018-10-05T15:34:48.334Z,101070.95
2018-10-05T15:37:19.035Z,101068.09
2018-10-05T15:39:49.700Z,101062.82
2018-10-05T15:42:20.091Z,101066.70
2018-10-05T15:44:50.447Z,101062.64
2018-10-05T15:47:20.892Z,101067.65
2018-10-05T15:49:51.312Z,101062.30
2018-10-05T15:52:21.738Z,101052.62
2018-10-05T15:54:52.210Z,101061.84
2018-10-05T15:57:22.771Z,101059.34
2018-10-05T15:59:53.281Z,101054.55
2018-10-05T16:02:23.783Z,101049.17
2018-10-05T16:04:54.211Z,101056.34
2018-10-05T16:07:24.680Z,101053.67
2018-10-05T16:09:54.984Z,101042.80
2018-10-05T16:12:25.875Z,101042.55
2018-10-05T16:14:56.352Z,101041.92
2018-10-05T16:17:26.891Z,101037.46
2018-10-05T16:19:57.183Z,101039.81
2018-10-05T16:22:27.777Z,101041.38
2018-10-05T16:24:58.373Z,101035.86
2018-10-05T16:27:28.747Z,101034.64
2018-10-05T16:29:59.003Z,101033.25
2018-10-05T16:32:29.503Z,101035.83
2018-10-05T16:35:00.010Z,101027.53
2018-10-05T16:37:30.578Z,101036.98
2018-10-05T16:40:00.785Z,101031.90
2018-10-05T16:42:31.244Z,101031.08
2018-10-05T16:45:01.704Z,101027.37
2018-10-05T16:47:32.564Z,101032.04
2018-10-05T16:50:02.952Z,101027.48
2018-10-05T16:52:35.396Z,101031.13
2018-10-05T16:55:05.888Z,101034.78
2018-10-05T16:57:36.384Z,101033.47
2018-10-05T17:00:07.097Z,101031.08
2018-10-05T17:02:37.566Z,101026.38
2018-10-05T17:05:08.160Z,101027.52
2018-10-05T17:07:38.381Z,101025.66
2018-10-05T17:10:09.532Z,101020.19
2018-10-05T17:12:39.771Z,101022.48
2018-10-05T17:15:10.180Z,101018.52
2018-10-05T17:17:40.702Z,101021.70
2018-10-05T17:20:11.144Z,101016.40
2018-10-05T17:22:41.403Z,101014.80
2018-10-05T17:25:11.882Z,101014.53
2018-10-05T17:27:42.281Z,101016.32
2018-10-05T17:30:12.792Z,101014.17
2018-10-05T17:32:43.353Z,101013.61
2018-10-05T17:35:13.857Z,101014.45
2018-10-05T17:37:44.529Z,101010.53
2018-10-05T17:40:14.698Z,101006.95
2018-10-05T17:42:45.199Z,101007.14
2018-10-05T17:45:15.701Z,101001.53
2018-10-05T17:47:46.378Z,101005.26
2018-10-05T17:50:16.924Z,101003.66
2018-10-05T17:52:47.429Z,100996.70
2018-10-05T17:55:18.736Z,100995.48
2018-10-05T17:57:49.183Z,100997.33
2018-10-05T18:00:19.801Z,100987.08
2018-10-05T18:02:50.306Z,100986.03
2018-10-05T18:05:20.612Z,100981.28
2018-10-05T18:07:51.103Z,100981.70
2018-10-05T18:10:21.681Z,100974.22
2018-10-05T18:12:52.163Z,100981.84
2018-10-05T18:15:23.332Z,100974.73
2018-10-05T18:17:53.817Z,100966.69
2018-10-05T18:20:24.387Z,100970.13
2018-10-05T18:22:54.673Z,100963.67
2018-10-05T18:25:25.185Z,100965.11
2018-10-05T18:27:55.652Z,100966.20
2018-10-05T18:30:26.107Z,100962.30
2018-10-05T18:32:56.884Z,100959.98
2018-10-05T18:35:27.502Z,100962.25
2018-10-05T18:37:58.010Z,100954.84
2018-10-05T18:40:28.663Z,100956.02
2018-10-05T18:42:59.254Z,100957.45
2018-10-05T18:45:29.745Z,100955.50
2018-10-05T18:48:00.261Z,100946.30
2018-10-05T18:50:30.772Z,100942.84
2018-10-05T18:53:01.357Z,100940.89
2018-10-05T18:55:31.941Z,100935.45
2018-10-05T18:58:02.367Z,100937.70
2018-10-05T19:00:33.078Z,100934.77
2018-10-05T19:03:03.740Z,100939.63
2018-10-05T19:05:34.701Z,100932.69
2018-10-05T19:08:05.187Z,100936.24
2018-10-05T19:10:35.801Z,100938.63
2018-10-05T19:13:06.487Z,100936.58
2018-10-05T19:15:37.144Z,100937.97
2018-10-05T19:18:07.648Z,100931.08
2018-10-05T19:20:38.320Z,100939.48
2018-10-05T19:23:08.916Z,100940.23
2018-10-05T19:25:39.197Z,100938.48
2018-10-05T19:28:09.543Z,100939.35
2018-10-05T19:30:40.041Z,100942.56
2018-10-05T19:33:10.628Z,100930.94
2018-10-05T19:35:41.323Z,100923.76
2018-10-05T19:38:11.818Z,100931.20
2018-10-05T19:40:42.613Z,100928.27
2018-10-05T19:43:13.129Z,100929.41
2018-10-05T19:45:43.900Z,100922.91
2018-10-05T19:48:14.598Z,100915.37
2018-10-05T19:50:45.011Z,100916.97
2018-10-05T19:53:15.534Z,100914.75
2018-10-05T19:55:46.083Z,100909.21
2018-10-05T19:58:16.672Z,100912.09
2018-10-05T20:00:47.134Z,100907.61
2018-10-05T20:03:17.635Z,100914.63
2018-10-05T20:05:48.213Z,100904.84
2018-10-05T20:08:18.732Z,100904.45
2018-10-05T20:10:49.943Z,100910.91
2018-10-05T20:13:20.499Z,100907.91
2018-10-05T20:15:51.083Z,100911.45
2018-10-05T20:18:21.405Z,100903.34
2018-10-05T20:20:51.907Z,100905.91
2018-10-05T20:23:22.450Z,100907.25
2018-10-05T20:25:53.111Z,100907.16
2018-10-05T20:28:23.676Z,100904.17
2018-10-05T20:30:54.328Z,100899.83
2018-10-05T20:33:26.917Z,100895.08
2018-10-05T20:35:57.755Z,100895.00
2018-10-05T20:38:28.168Z,100888.12
2018-10-05T20:40:58.644Z,100890.41
2018-10-05T20:43:29.234Z,100884.66
2018-10-05T20:45:59.913Z,100883.52
2018-10-05T20:48:30.403Z,100876.50
2018-10-05T20:51:00.799Z,100874.76
2018-10-05T20:53:31.768Z,100866.64
2018-10-05T20:56:02.191Z,100876.73
2018-10-05T20:58:32.538Z,100884.84
2018-10-05T21:01:02.918Z,100878.09
2018-10-05T21:03:33.403Z,100874.87
2018-10-05T21:06:03.883Z,100875.10
2018-10-05T21:08:34.268Z,100873.75
2018-10-05T21:11:04.666Z,100869.91
2018-10-05T21:13:35.110Z,100859.44
2018-10-05T21:16:05.575Z,100853.81
2018-10-05T21:18:36.089Z,100848.38
2018-10-05T21:21:06.989Z,100854.80
2018-10-05T21:23:37.464Z,100854.92
2018-10-05T21:26:08.070Z,100857.20
2018-10-05T21:28:38.530Z,100856.73
2018-10-05T21:31:09.218Z,100857.44
2018-10-05T21:33:39.692Z,100856.06
2018-10-05T21:36:09.979Z,100859.72
2018-10-05T21:38:41.591Z,100850.12
2018-10-05T21:41:12.046Z,100858.97
2018-10-05T21:43:42.525Z,100851.10
2018-10-05T21:46:13.012Z,100852.41
2018-10-05T21:48:43.572Z,100847.21
2018-10-05T21:51:13.906Z,100848.43
2018-10-05T21:53:44.267Z,100844.58
2018-10-05T21:56:14.925Z,100842.52
2018-10-05T21:58:45.331Z,100844.99
2018-10-05T22:01:15.701Z,100838.15
2018-10-05T22:03:46.948Z,100840.20
2018-10-05T22:06:19.198Z,100832.77
2018-10-05T22:08:49.707Z,100831.23
2018-10-05T22:11:20.063Z,100829.39
2018-10-05T22:13:50.363Z,100826.28
2018-10-05T22:16:20.941Z,100825.06
2018-10-05T22:18:51.447Z,100825.22
2018-10-05T22:21:21.995Z,100827.27
2018-10-05T22:23:52.314Z,100821.53
2018-10-05T22:26:22.555Z,100820.96
2018-10-05T22:28:52.953Z,100811.27
2018-10-05T22:31:23.312Z,100805.61
2018-10-05T22:33:53.693Z,100811.85
2018-10-05T22:36:24.263Z,100804.06
2018-10-05T22:38:54.769Z,100804.95
2018-10-05T22:41:25.276Z,100801.36
2018-10-05T22:43:55.517Z,100808.88
2018-10-05T22:46:25.980Z,100807.41
2018-10-05T22:48:56.369Z,100804.84
2018-10-05T22:51:27.036Z,100796.69
2018-10-05T22:53:57.359Z,100792.94
2018-10-05T22:56:27.856Z,100790.56
2018-10-05T22:58:58.204Z,100789.45
2018-10-05T23:01:28.669Z,100783.36
2018-10-05T23:03:59.061Z,100784.20
2018-10-05T23:06:29.565Z,100781.53
2018-10-05T23:08:59.900Z,100785.06
2018-10-05T23:11:30.305Z,100782.97
2018-10-05T23:14:00.681Z,100781.03
2018-10-05T23:16:31.283Z,100773.94
2018-10-05T23:19:01.761Z,100771.73
2018-10-05T23:21:32.380Z,100776.41
2018-10-05T23:24:02.872Z,100774.98
2018-10-05T23:26:33.412Z,100781.06
2018-10-05T23:29:03.772Z,100781.70
2018-10-05T23:31:34.236Z,100767.91
2018-10-05T23:34:04.753Z,100763.83
2018-10-05T23:36:35.408Z,100762.03
2018-10-05T23:39:08.216Z,100760.47
2018-10-05T23:41:38.644Z,100761.59
2018-10-05T23:44:09.532Z,100760.02
2018-10-05T23:46:39.893Z,100760.55
2018-10-05T23:49:10.382Z,100759.13
2018-10-05T23:51:40.890Z,100761.38
2018-10-05T23:54:11.159Z,100753.86
2018-10-05T23:56:41.632Z,100755.69
2018-10-05T23:59:11.909Z,100748.18
